createdAt,value
2017-10-19T00:00:45.885Z,0.00
2017-10-19T00:01:47.083Z,0.00
2017-10-19T00:02:46.331Z,0.00
2017-10-19T00:03:46.754Z,0.00
2017-10-19T00:04:46.999Z,0.00
2017-10-19T00:05:47.294Z,0.00
2017-10-19T00:06:47.534Z,0.00
2017-10-19T00:07:46.408Z,0.00
2017-10-19T00:08:46.709Z,0.00
2017-10-19T00:09:47.056Z,0.00
2017-10-19T00:10:46.366Z,0.00
2017-10-19T00:11:47.018Z,0.00
2017-10-19T00:12:48.034Z,0.00
2017-10-19T00:13:47.558Z,0.00
2017-10-19T00:14:46.729Z,0.00
2017-10-19T00:15:46.943Z,0.00
2017-10-19T00:16:47.460Z,0.00
2017-10-19T00:17:46.777Z,0.00
2017-10-19T00:18:47.391Z,0.00
2017-10-19T00:19:46.364Z,0.00
2017-10-19T00:20:46.156Z,0.00
2017-10-19T00:21:46.647Z,0.00
2017-10-19T00:22:47.194Z,0.00
2017-10-19T00:23:46.907Z,0.00
2017-10-19T00:24:47.324Z,0.00
2017-10-19T00:25:46.480Z,0.00
2017-10-19T00:26:46.595Z,0.00
2017-10-19T00:27:47.154Z,0.00
2017-10-19T00:28:46.680Z,0.00
2017-10-19T00:29:46.790Z,0.00
2017-10-19T00:30:47.207Z,0.00
2017-10-19T00:31:46.446Z,0.00
2017-10-19T00:32:46.988Z,0.00
2017-10-19T00:33:47.113Z,0.00
2017-10-19T00:34:46.883Z,0.00
2017-10-19T00:35:47.578Z,0.00
2017-10-19T00:36:46.699Z,0.00
2017-10-19T00:37:47.193Z,0.00
2017-10-19T00:38:46.253Z,0.00
2017-10-19T00:39:46.567Z,0.00
2017-10-19T00:40:46.804Z,0.00
2017-10-19T00:41:47.211Z,0.00
2017-10-19T00:42:46.698Z,0.00
2017-10-19T00:43:47.200Z,0.00
2017-10-19T00:44:46.487Z,0.00
2017-10-19T00:45:46.876Z,0.00
2017-10-19T00:46:47.973Z,0.00
2017-10-19T00:47:47.235Z,0.00
2017-10-19T00:48:46.893Z,0.00
2017-10-19T00:49:47.377Z,0.00
2017-10-19T00:50:46.965Z,0.00
2017-10-19T00:51:47.929Z,0.00
2017-10-19T00:52:47.267Z,0.00
2017-10-19T00:53:46.368Z,0.00
2017-10-19T00:54:46.514Z,0.00
2017-10-19T00:55:47.029Z,0.00
2017-10-19T00:56:47.420Z,0.00
2017-10-19T00:57:46.944Z,0.00
2017-10-19T00:58:47.141Z,0.00
2017-10-19T00:59:46.409Z,0.00
2017-10-19T01:00:46.914Z,0.00
2017-10-19T01:01:47.738Z,0.00
2017-10-19T01:02:46.910Z,0.00
2017-10-19T01:03:47.240Z,0.00
2017-10-19T01:04:46.768Z,0.00
2017-10-19T01:05:46.774Z,0.00
2017-10-19T01:06:46.986Z,0.00
2017-10-19T01:07:47.053Z,0.00
2017-10-19T01:08:46.150Z,0.00
2017-10-19T01:09:46.163Z,0.00
2017-10-19T01:10:46.720Z,0.00
2017-10-19T01:11:47.634Z,0.00
2017-10-19T01:12:47.247Z,0.00
2017-10-19T01:13:46.688Z,0.00
2017-10-19T01:14:47.101Z,0.00
2017-10-19T01:15:46.879Z,0.00
2017-10-19T01:16:47.458Z,0.00
2017-10-19T01:17:46.610Z,0.00
2017-10-19T01:18:47.236Z,0.00
2017-10-19T01:19:46.776Z,0.00
2017-10-19T01:20:47.371Z,0.00
2017-10-19T01:21:46.284Z,0.00
2017-10-19T01:22:46.643Z,0.00
2017-10-19T01:23:47.108Z,0.00
2017-10-19T01:24:46.862Z,0.00
2017-10-19T01:25:46.883Z,0.00
2017-10-19T01:26:47.360Z,0.00
2017-10-19T01:27:46.983Z,0.00
2017-10-19T01:28:47.153Z,0.00
2017-10-19T01:29:47.074Z,0.00
2017-10-19T01:30:46.652Z,0.00
2017-10-19T01:31:46.954Z,0.00
2017-10-19T01:32:47.016Z,0.00
2017-10-19T01:33:47.518Z,0.00
2017-10-19T01:34:47.014Z,0.00
2017-10-19T01:35:47.468Z,0.00
2017-10-19T01:36:47.057Z,0.00
2017-10-19T01:37:46.568Z,0.00
2017-10-19T01:38:46.568Z,0.00
2017-10-19T01:39:46.908Z,0.00
2017-10-19T01:40:47.021Z,0.00
2017-10-19T01:41:47.140Z,0.00
2017-10-19T01:42:46.803Z,0.00
2017-10-19T01:43:46.937Z,0.00
2017-10-19T01:44:46.886Z,0.00
2017-10-19T01:45:46.778Z,0.00
2017-10-19T01:46:47.308Z,0.00
2017-10-19T01:47:46.297Z,0.00
2017-10-19T01:48:47.413Z,0.00
2017-10-19T01:49:47.092Z,0.00
2017-10-19T01:50:46.673Z,0.00
2017-10-19T01:51:46.761Z,0.00
2017-10-19T01:52:47.142Z,0.00
2017-10-19T01:53:45.747Z,0.00
2017-10-19T01:54:46.791Z,0.00
2017-10-19T01:55:46.414Z,0.00
2017-10-19T01:56:46.626Z,0.00
2017-10-19T01:57:46.769Z,0.00
2017-10-19T01:58:47.565Z,0.00
2017-10-19T01:59:46.635Z,0.00
2017-10-19T02:00:46.815Z,0.00
2017-10-19T02:01:46.828Z,0.00
2017-10-19T02:02:46.614Z,0.00
2017-10-19T02:03:46.446Z,0.00
2017-10-19T02:04:46.254Z,0.00
2017-10-19T02:05:46.604Z,0.00
2017-10-19T02:06:46.647Z,0.00
2017-10-19T02:07:46.516Z,0.00
2017-10-19T02:08:46.705Z,0.00
2017-10-19T02:09:46.440Z,0.00
2017-10-19T02:10:46.173Z,0.00
2017-10-19T02:11:46.110Z,0.00
2017-10-19T02:12:46.152Z,0.00
2017-10-19T02:13:45.992Z,0.00
2017-10-19T02:14:46.002Z,0.00
2017-10-19T02:15:45.916Z,0.00
2017-10-19T02:16:47.217Z,0.00
2017-10-19T02:17:46.747Z,0.00
2017-10-19T02:18:46.655Z,0.00
2017-10-19T02:19:46.765Z,0.00
2017-10-19T02:20:46.553Z,0.00
2017-10-19T02:21:46.692Z,0.00
2017-10-19T02:22:46.851Z,0.00
2017-10-19T02:23:46.607Z,0.00
2017-10-19T02:24:47.024Z,0.00
2017-10-19T02:25:46.120Z,0.00
2017-10-19T02:26:46.172Z,0.00
2017-10-19T02:27:46.521Z,0.00
2017-10-19T02:28:47.172Z,0.00
2017-10-19T02:29:45.909Z,0.00
2017-10-19T02:30:46.075Z,0.00
2017-10-19T02:31:46.278Z,0.00
2017-10-19T02:32:46.096Z,0.00
2017-10-19T02:33:46.736Z,0.00
2017-10-19T02:34:47.045Z,0.00
2017-10-19T02:35:46.368Z,0.00
2017-10-19T02:36:46.130Z,0.00
2017-10-19T02:37:46.282Z,0.00
2017-10-19T02:38:47.421Z,0.00
2017-10-19T02:39:46.120Z,0.00
2017-10-19T02:40:46.425Z,0.00
2017-10-19T02:41:46.573Z,0.00
2017-10-19T02:42:46.471Z,0.00
2017-10-19T02:43:46.568Z,0.00
2017-10-19T02:44:46.815Z,0.00
2017-10-19T02:45:46.528Z,0.00
2017-10-19T02:46:46.337Z,0.00
2017-10-19T02:47:46.074Z,0.00
2017-10-19T02:48:45.874Z,0.00
2017-10-19T02:49:46.032Z,0.00
2017-10-19T02:50:46.304Z,0.00
2017-10-19T02:51:46.362Z,0.00
2017-10-19T02:52:46.811Z,0.00
2017-10-19T02:53:47.141Z,0.00
2017-10-19T02:54:46.646Z,0.00
2017-10-19T02:55:47.342Z,0.00
2017-10-19T02:56:46.072Z,0.00
2017-10-19T02:57:46.331Z,0.00
2017-10-19T02:58:45.888Z,0.00
2017-10-19T02:59:46.531Z,0.00
2017-10-19T03:00:46.660Z,0.00
2017-10-19T03:01:46.757Z,0.00
2017-10-19T03:02:46.316Z,0.00
2017-10-19T03:03:46.112Z,0.00
2017-10-19T03:04:45.886Z,0.00
2017-10-19T03:05:46.894Z,0.00
2017-10-19T03:06:45.696Z,0.00
2017-10-19T03:07:47.358Z,0.00
2017-10-19T03:08:46.211Z,0.00
2017-10-19T03:09:46.469Z,0.00
2017-10-19T03:10:46.248Z,0.00
2017-10-19T03:11:45.888Z,0.00
2017-10-19T03:12:46.595Z,0.00
2017-10-19T03:13:47.051Z,0.00
2017-10-19T03:14:45.988Z,0.00
2017-10-19T03:15:45.721Z,0.00
2017-10-19T03:16:46.272Z,0.00
2017-10-19T03:17:45.957Z,0.00
2017-10-19T03:18:45.790Z,0.00
2017-10-19T03:19:46.934Z,0.00
2017-10-19T03:20:47.020Z,0.00
2017-10-19T03:21:46.254Z,0.00
2017-10-19T03:22:46.686Z,0.00
2017-10-19T03:23:46.974Z,0.00
2017-10-19T03:24:45.837Z,0.00
2017-10-19T03:25:46.966Z,0.00
2017-10-19T03:26:46.555Z,0.00
2017-10-19T03:27:46.274Z,0.00
2017-10-19T03:28:46.051Z,0.00
2017-10-19T03:29:46.176Z,0.00
2017-10-19T03:30:45.879Z,0.00
2017-10-19T03:31:46.910Z,0.00
2017-10-19T03:32:46.111Z,0.00
2017-10-19T03:33:46.538Z,0.00
2017-10-19T03:34:46.308Z,0.00
2017-10-19T03:35:46.022Z,0.00
2017-10-19T03:36:46.651Z,0.00
2017-10-19T03:37:46.745Z,0.00
2017-10-19T03:38:46.935Z,0.00
2017-10-19T03:39:46.106Z,0.00
2017-10-19T03:40:46.450Z,0.00
2017-10-19T03:41:46.678Z,0.00
2017-10-19T03:42:46.704Z,0.00
2017-10-19T03:43:46.832Z,0.00
2017-10-19T03:44:46.975Z,0.00
2017-10-19T03:45:45.706Z,0.00
2017-10-19T03:46:46.966Z,0.00
2017-10-19T03:47:46.167Z,0.00
2017-10-19T03:48:46.072Z,0.00
2017-10-19T03:49:46.142Z,0.00
2017-10-19T03:50:46.055Z,0.00
2017-10-19T03:51:45.859Z,0.00
2017-10-19T03:52:46.314Z,0.00
2017-10-19T03:53:46.370Z,0.00
2017-10-19T03:54:46.412Z,0.00
2017-10-19T03:55:46.121Z,0.00
2017-10-19T03:56:46.371Z,0.00
2017-10-19T03:57:46.145Z,0.00
2017-10-19T03:58:45.826Z,0.00
2017-10-19T03:59:46.781Z,0.00
2017-10-19T04:00:47.037Z,0.00
2017-10-19T04:01:47.154Z,0.00
2017-10-19T04:02:45.907Z,0.00
2017-10-19T04:03:45.641Z,0.00
2017-10-19T04:04:46.934Z,0.00
2017-10-19T04:05:46.112Z,0.00
2017-10-19T04:06:45.774Z,0.00
2017-10-19T04:07:46.550Z,0.00
2017-10-19T04:08:46.658Z,0.00
2017-10-19T04:09:46.899Z,0.00
2017-10-19T04:10:46.901Z,0.00
2017-10-19T04:11:47.077Z,0.00
2017-10-19T04:12:45.782Z,0.00
2017-10-19T04:13:46.625Z,0.00
2017-10-19T04:14:46.414Z,0.00
2017-10-19T04:15:46.152Z,0.00
2017-10-19T04:16:46.694Z,0.00
2017-10-19T04:17:46.803Z,0.00
2017-10-19T04:18:46.618Z,0.00
2017-10-19T04:19:46.350Z,0.00
2017-10-19T04:20:46.040Z,0.00
2017-10-19T04:21:46.099Z,0.00
2017-10-19T04:22:46.221Z,0.00
2017-10-19T04:23:45.844Z,0.00
2017-10-19T04:24:45.715Z,0.00
2017-10-19T04:25:46.381Z,0.00
2017-10-19T04:26:47.277Z,0.00
2017-10-19T04:27:46.324Z,0.00
2017-10-19T04:28:46.415Z,0.00
2017-10-19T04:29:46.803Z,0.00
2017-10-19T04:30:46.953Z,0.00
2017-10-19T04:31:46.170Z,0.00
2017-10-19T04:32:46.635Z,0.00
2017-10-19T04:33:46.623Z,0.00
2017-10-19T04:34:46.419Z,0.00
2017-10-19T04:35:46.854Z,0.00
2017-10-19T04:36:46.781Z,0.00
2017-10-19T04:37:46.565Z,0.00
2017-10-19T04:38:47.178Z,0.00
2017-10-19T04:39:46.349Z,0.00
2017-10-19T04:40:46.464Z,0.00
2017-10-19T04:41:47.848Z,0.00
2017-10-19T04:42:48.450Z,0.00
2017-10-19T04:43:46.586Z,0.00
2017-10-19T04:44:46.478Z,0.00
2017-10-19T04:45:46.729Z,0.00
2017-10-19T04:46:46.459Z,0.00
2017-10-19T04:47:46.800Z,0.00
2017-10-19T04:48:46.419Z,0.00
2017-10-19T04:49:46.219Z,0.00
2017-10-19T04:50:46.595Z,0.00
2017-10-19T04:51:46.741Z,0.00
2017-10-19T04:52:46.579Z,0.00
2017-10-19T04:53:46.519Z,0.00
2017-10-19T04:54:46.706Z,0.00
2017-10-19T04:55:46.813Z,0.00
2017-10-19T04:56:46.617Z,0.00
2017-10-19T04:57:46.676Z,0.00
2017-10-19T04:58:47.450Z,0.00
2017-10-19T04:59:46.064Z,0.00
2017-10-19T05:00:46.080Z,0.00
2017-10-19T05:01:47.853Z,0.00
2017-10-19T05:02:46.203Z,0.00
2017-10-19T05:03:45.886Z,0.00
2017-10-19T05:04:46.192Z,0.00
2017-10-19T05:05:46.099Z,0.00
2017-10-19T05:06:46.078Z,0.00
2017-10-19T05:07:45.745Z,0.00
2017-10-19T05:08:45.866Z,0.00
2017-10-19T05:09:45.680Z,0.00
2017-10-19T05:10:46.884Z,0.00
2017-10-19T05:11:46.312Z,0.00
2017-10-19T05:12:45.522Z,0.00
2017-10-19T05:13:46.717Z,0.00
2017-10-19T05:14:46.413Z,0.00
2017-10-19T05:15:46.513Z,0.00
2017-10-19T05:16:47.711Z,0.00
2017-10-19T05:17:46.563Z,1.00
2017-10-19T05:18:46.810Z,1.00
2017-10-19T05:19:46.836Z,0.00
2017-10-19T05:20:46.444Z,1.00
2017-10-19T05:21:46.696Z,1.00
2017-10-19T05:22:46.844Z,1.00
2017-10-19T05:23:46.807Z,2.00
2017-10-19T05:24:45.720Z,2.00
2017-10-19T05:25:46.341Z,2.00
2017-10-19T05:26:46.095Z,3.00
2017-10-19T05:27:46.154Z,3.00
2017-10-19T05:28:46.412Z,3.00
2017-10-19T05:29:46.472Z,4.00
2017-10-19T05:30:46.770Z,5.00
2017-10-19T05:31:47.015Z,7.00
2017-10-19T05:32:46.123Z,7.00
2017-10-19T05:33:46.812Z,9.00
2017-10-19T05:34:45.628Z,10.00
2017-10-19T05:35:46.925Z,12.00
2017-10-19T05:36:45.682Z,15.00
2017-10-19T05:37:46.500Z,19.00
2017-10-19T05:38:46.972Z,22.00
2017-10-19T05:39:45.892Z,26.00
2017-10-19T05:40:46.097Z,30.00
2017-10-19T05:41:46.491Z,36.00
2017-10-19T05:42:46.363Z,42.00
2017-10-19T05:43:47.152Z,50.00
2017-10-19T05:44:46.387Z,58.00
2017-10-19T05:45:47.180Z,67.00
2017-10-19T05:46:46.617Z,78.00
2017-10-19T05:47:46.985Z,91.00
2017-10-19T05:48:46.464Z,104.00
2017-10-19T05:49:47.620Z,119.00
2017-10-19T05:50:45.743Z,135.00
2017-10-19T05:51:46.059Z,154.00
2017-10-19T05:52:46.255Z,174.00
2017-10-19T05:53:46.551Z,194.00
2017-10-19T05:54:45.819Z,217.00
2017-10-19T05:55:46.716Z,240.00
2017-10-19T05:56:46.762Z,264.00
2017-10-19T05:57:46.179Z,290.00
2017-10-19T05:58:46.967Z,317.00
2017-10-19T05:59:46.362Z,348.00
2017-10-19T06:00:47.483Z,379.00
2017-10-19T06:01:46.992Z,412.00
2017-10-19T06:02:45.863Z,446.00
2017-10-19T06:03:45.934Z,483.00
2017-10-19T06:04:46.279Z,521.00
2017-10-19T06:05:45.988Z,565.00
2017-10-19T06:06:46.375Z,610.00
2017-10-19T06:07:46.904Z,654.00
2017-10-19T06:08:45.762Z,695.00
2017-10-19T06:09:45.705Z,734.00
2017-10-19T06:10:46.144Z,770.00
2017-10-19T06:11:46.836Z,810.00
2017-10-19T06:12:46.452Z,849.00
2017-10-19T06:13:45.961Z,899.00
2017-10-19T06:14:46.039Z,956.00
2017-10-19T06:15:46.727Z,1020.00
2017-10-19T06:16:45.647Z,1081.00
2017-10-19T06:17:46.946Z,1146.00
2017-10-19T06:18:46.288Z,1213.00
2017-10-19T06:19:46.202Z,1291.00
2017-10-19T06:20:46.637Z,1390.00
2017-10-19T06:21:46.943Z,1492.00
2017-10-19T06:22:46.028Z,1590.00
2017-10-19T06:23:46.343Z,1684.00
2017-10-19T06:24:46.190Z,1785.00
2017-10-19T06:25:46.630Z,1863.00
2017-10-19T06:26:46.697Z,1935.00
2017-10-19T06:27:46.026Z,2023.00
2017-10-19T06:28:46.938Z,2150.00
2017-10-19T06:29:46.514Z,2280.00
2017-10-19T06:30:46.542Z,2376.00
2017-10-19T06:31:47.140Z,2452.00
2017-10-19T06:32:46.710Z,2549.00
2017-10-19T06:33:45.812Z,2683.00
2017-10-19T06:34:46.725Z,2799.00
2017-10-19T06:35:46.377Z,2899.00
2017-10-19T06:36:46.427Z,3014.00
2017-10-19T06:37:46.305Z,3131.00
2017-10-19T06:38:46.418Z,3238.00
2017-10-19T06:39:46.779Z,3324.00
2017-10-19T06:40:45.795Z,3405.00
2017-10-19T06:41:46.330Z,3475.00
2017-10-19T06:42:46.015Z,3546.00
2017-10-19T06:43:46.637Z,3628.00
2017-10-19T06:44:46.810Z,3716.00
2017-10-19T06:45:46.324Z,3816.00
2017-10-19T06:46:46.833Z,3927.00
2017-10-19T06:47:45.855Z,4039.00
2017-10-19T06:48:47.112Z,4150.00
2017-10-19T06:49:47.219Z,4250.00
2017-10-19T06:50:46.699Z,4345.00
2017-10-19T06:51:46.584Z,4437.00
2017-10-19T06:52:46.630Z,4531.00
2017-10-19T06:53:46.177Z,4622.00
2017-10-19T06:54:46.724Z,4718.00
2017-10-19T06:55:46.334Z,4813.00
2017-10-19T06:56:46.345Z,4908.00
2017-10-19T06:57:46.279Z,4999.00
2017-10-19T06:58:46.344Z,5091.00
2017-10-19T06:59:46.594Z,5190.00
2017-10-19T07:00:46.540Z,5306.00
2017-10-19T07:01:46.202Z,5452.00
2017-10-19T07:02:46.529Z,5673.00
2017-10-19T07:03:46.556Z,5834.00
2017-10-19T07:04:46.293Z,5948.00
2017-10-19T07:05:46.905Z,6088.00
2017-10-19T07:06:46.611Z,6274.00
2017-10-19T07:07:46.584Z,6398.00
2017-10-19T07:08:46.788Z,6522.00
2017-10-19T07:09:46.082Z,6548.00
2017-10-19T07:10:46.570Z,6591.00
2017-10-19T07:11:47.060Z,6685.00
2017-10-19T07:12:45.956Z,6760.00
2017-10-19T07:13:46.450Z,6832.00
2017-10-19T07:14:46.522Z,6909.00
2017-10-19T07:15:46.800Z,6968.00
2017-10-19T07:16:46.136Z,7008.00
2017-10-19T07:17:46.185Z,7072.00
2017-10-19T07:18:46.784Z,7152.00
2017-10-19T07:19:46.084Z,7242.00
2017-10-19T07:20:46.219Z,7323.00
2017-10-19T07:21:46.603Z,7414.00
2017-10-19T07:22:46.018Z,7541.00
2017-10-19T07:23:46.029Z,7673.00
2017-10-19T07:24:46.971Z,7832.00
2017-10-19T07:25:46.959Z,7952.00
2017-10-19T07:26:46.370Z,8102.00
2017-10-19T07:27:46.513Z,8215.00
2017-10-19T07:28:46.435Z,8285.00
2017-10-19T07:29:46.417Z,8371.00
2017-10-19T07:30:46.798Z,8464.00
2017-10-19T07:31:45.769Z,8560.00
2017-10-19T07:32:46.292Z,8669.00
2017-10-19T07:33:46.196Z,8785.00
2017-10-19T07:34:46.219Z,8888.00
2017-10-19T07:35:46.482Z,8970.00
2017-10-19T07:36:46.857Z,9022.00
2017-10-19T07:37:45.770Z,9045.00
2017-10-19T07:38:45.713Z,9062.00
2017-10-19T07:39:45.996Z,9060.00
2017-10-19T07:40:46.489Z,9064.00
2017-10-19T07:41:46.289Z,9078.00
2017-10-19T07:42:46.234Z,9086.00
2017-10-19T07:43:46.328Z,9129.00
2017-10-19T07:44:46.915Z,9188.00
2017-10-19T07:45:46.192Z,9256.00
2017-10-19T07:46:45.802Z,9313.00
2017-10-19T07:47:46.049Z,9394.00
2017-10-19T07:48:46.534Z,9456.00
2017-10-19T07:49:46.038Z,9506.00
2017-10-19T07:50:50.241Z,9547.00
2017-10-19T07:51:46.983Z,9602.00
2017-10-19T07:52:46.300Z,9675.00
2017-10-19T07:53:46.851Z,9732.00
2017-10-19T07:54:46.426Z,9778.00
2017-10-19T07:55:46.978Z,9835.00
2017-10-19T07:56:46.190Z,9904.00
2017-10-19T07:57:46.067Z,9968.00
2017-10-19T07:58:46.884Z,10022.00
2017-10-19T07:59:45.914Z,10082.00
2017-10-19T08:00:45.934Z,10151.00
2017-10-19T08:01:46.521Z,10227.00
2017-10-19T08:02:45.715Z,10308.00
2017-10-19T08:03:45.696Z,10398.00
2017-10-19T08:04:45.716Z,10541.00
2017-10-19T08:05:46.267Z,10650.00
2017-10-19T08:06:46.534Z,10711.00
2017-10-19T08:07:46.816Z,10816.00
2017-10-19T08:08:46.252Z,10937.00
2017-10-19T08:09:46.646Z,11032.00
2017-10-19T08:10:47.052Z,11137.00
2017-10-19T08:11:46.375Z,11204.00
2017-10-19T08:12:46.702Z,11238.00
2017-10-19T08:13:46.772Z,11290.00
2017-10-19T08:14:45.830Z,11316.00
2017-10-19T08:16:16.955Z,11384.00
2017-10-19T08:16:46.715Z,11432.00
2017-10-19T08:17:47.019Z,11463.00
2017-10-19T08:18:46.607Z,11466.00
2017-10-19T08:19:46.227Z,11480.00
2017-10-19T08:20:46.970Z,11514.00
2017-10-19T08:21:46.466Z,11596.00
2017-10-19T08:22:46.657Z,11723.00
2017-10-19T08:23:45.855Z,11916.00
2017-10-19T08:24:46.288Z,11930.00
2017-10-19T08:25:46.381Z,11997.00
2017-10-19T08:26:47.089Z,12136.00
2017-10-19T08:27:46.748Z,12288.00
2017-10-19T08:28:45.952Z,12420.00
2017-10-19T08:29:45.997Z,12509.00
2017-10-19T08:30:46.651Z,12520.00
2017-10-19T08:31:45.803Z,12599.00
2017-10-19T08:32:46.550Z,12988.00
2017-10-19T08:33:46.183Z,14386.00
2017-10-19T08:34:47.155Z,15856.00
2017-10-19T08:35:46.380Z,16585.00
2017-10-19T08:36:46.972Z,17576.00
2017-10-19T08:37:46.265Z,17464.00
2017-10-19T08:38:46.273Z,15871.00
2017-10-19T08:39:46.759Z,15523.00
2017-10-19T08:40:46.425Z,16643.00
2017-10-19T08:41:46.794Z,17960.00
2017-10-19T08:42:46.308Z,18192.00
2017-10-19T08:43:46.683Z,17696.00
2017-10-19T08:44:46.348Z,19080.00
2017-10-19T08:45:47.023Z,20104.00
2017-10-19T08:46:46.784Z,20248.00
2017-10-19T08:47:46.564Z,20584.00
2017-10-19T08:48:45.847Z,21384.00
2017-10-19T08:49:46.805Z,22360.00
2017-10-19T08:50:46.463Z,24384.00
2017-10-19T08:51:46.804Z,27560.00
2017-10-19T08:52:46.116Z,30832.00
2017-10-19T08:53:46.331Z,32888.00
2017-10-19T08:54:47.161Z,32792.00
2017-10-19T08:55:46.278Z,29272.00
2017-10-19T08:56:46.353Z,27960.00
2017-10-19T08:57:46.832Z,28128.00
2017-10-19T08:58:46.623Z,30056.00
2017-10-19T08:59:46.745Z,33384.00
2017-10-19T09:00:46.167Z,36280.00
2017-10-19T09:01:46.343Z,35760.00
2017-10-19T09:02:47.177Z,36728.00
2017-10-19T09:03:46.614Z,36288.00
2017-10-19T09:04:46.728Z,32520.00
2017-10-19T09:05:46.306Z,27872.00
2017-10-19T09:06:46.140Z,24136.00
2017-10-19T09:07:46.840Z,22984.00
2017-10-19T09:08:46.474Z,22536.00
2017-10-19T09:09:46.299Z,22464.00
2017-10-19T09:10:45.889Z,23448.00
2017-10-19T09:11:46.378Z,23552.00
2017-10-19T09:12:47.379Z,23728.00
2017-10-19T09:13:46.154Z,23216.00
2017-10-19T09:14:46.871Z,23776.00
2017-10-19T09:15:46.764Z,24032.00
2017-10-19T09:16:46.399Z,24248.00
2017-10-19T09:17:45.931Z,24552.00
2017-10-19T09:18:46.460Z,24848.00
2017-10-19T09:19:47.071Z,25112.00
2017-10-19T09:20:46.818Z,24888.00
2017-10-19T09:21:46.132Z,25264.00
2017-10-19T09:22:46.010Z,25608.00
2017-10-19T09:23:47.169Z,26440.00
2017-10-19T09:24:46.543Z,27288.00
2017-10-19T09:25:47.043Z,27328.00
2017-10-19T09:26:46.737Z,27528.00
2017-10-19T09:27:46.347Z,28288.00
2017-10-19T09:28:46.765Z,27616.00
2017-10-19T09:29:46.256Z,26920.00
2017-10-19T09:30:47.234Z,28624.00
2017-10-19T09:31:46.850Z,28936.00
2017-10-19T09:32:46.482Z,31496.00
2017-10-19T09:33:46.200Z,32192.00
2017-10-19T09:34:45.985Z,31032.00
2017-10-19T09:35:46.663Z,31368.00
2017-10-19T09:36:45.864Z,31888.00
2017-10-19T09:37:46.166Z,35408.00
2017-10-19T09:38:46.793Z,45680.00
2017-10-19T09:39:46.282Z,58208.00
2017-10-19T09:40:46.604Z,56672.00
2017-10-19T09:41:45.797Z,50280.00
2017-10-19T09:42:46.160Z,43712.00
2017-10-19T09:43:46.529Z,36224.00
2017-10-19T09:44:46.526Z,29688.00
2017-10-19T09:45:45.583Z,26656.00
2017-10-19T09:46:46.288Z,26896.00
2017-10-19T09:47:46.320Z,26416.00
2017-10-19T09:48:45.570Z,24120.00
2017-10-19T09:49:45.612Z,24032.00
2017-10-19T09:50:46.127Z,24368.00
2017-10-19T09:51:46.979Z,25168.00
2017-10-19T09:52:46.769Z,25856.00
2017-10-19T09:53:46.389Z,25504.00
2017-10-19T09:54:46.277Z,24808.00
2017-10-19T09:55:46.960Z,23784.00
2017-10-19T09:56:47.393Z,22640.00
2017-10-19T09:57:46.497Z,22256.00
2017-10-19T09:58:45.608Z,22072.00
2017-10-19T09:59:45.830Z,21224.00
2017-10-19T10:00:46.499Z,21752.00
2017-10-19T10:01:46.772Z,22336.00
2017-10-19T10:02:45.928Z,22344.00
2017-10-19T10:03:46.358Z,22024.00
2017-10-19T10:04:46.781Z,21200.00
2017-10-19T10:05:46.350Z,21512.00
2017-10-19T10:06:46.906Z,21672.00
2017-10-19T10:07:46.202Z,22216.00
2017-10-19T10:08:46.963Z,22600.00
2017-10-19T10:09:46.544Z,24216.00
2017-10-19T10:10:46.868Z,26616.00
2017-10-19T10:11:46.476Z,27136.00
2017-10-19T10:12:46.688Z,28944.00
2017-10-19T10:13:46.208Z,29232.00
2017-10-19T10:14:45.666Z,31776.00
2017-10-19T10:15:46.242Z,34568.00
2017-10-19T10:16:46.320Z,37576.00
2017-10-19T10:17:47.002Z,36264.00
2017-10-19T10:18:46.535Z,42160.00
2017-10-19T10:19:45.624Z,44640.00
2017-10-19T10:20:46.403Z,43512.00
2017-10-19T10:21:46.888Z,42840.00
2017-10-19T10:22:46.113Z,42592.00
2017-10-19T10:23:46.273Z,43392.00
2017-10-19T10:24:45.884Z,44232.00
2017-10-19T10:25:45.619Z,45032.00
2017-10-19T10:26:46.160Z,44536.00
2017-10-19T10:27:45.652Z,46456.00
2017-10-19T10:28:46.296Z,45792.00
2017-10-19T10:29:46.930Z,44496.00
2017-10-19T10:30:45.923Z,44680.00
2017-10-19T10:31:46.190Z,45256.00
2017-10-19T10:32:46.666Z,46960.00
2017-10-19T10:33:46.018Z,45280.00
2017-10-19T10:34:46.212Z,42968.00
2017-10-19T10:35:47.895Z,45176.00
2017-10-19T10:36:46.734Z,46200.00
2017-10-19T10:37:46.346Z,45880.00
2017-10-19T10:38:45.826Z,47472.00
2017-10-19T10:39:46.311Z,46136.00
2017-10-19T10:40:45.566Z,47080.00
2017-10-19T10:41:45.618Z,49008.00
2017-10-19T10:42:46.163Z,44328.00
2017-10-19T10:43:46.759Z,40176.00
2017-10-19T10:44:46.238Z,39104.00
2017-10-19T10:45:46.622Z,46616.00
2017-10-19T10:46:45.676Z,48184.00
2017-10-19T10:47:46.630Z,44552.00
2017-10-19T10:48:45.892Z,45008.00
2017-10-19T10:49:46.103Z,47248.00
2017-10-19T10:50:46.149Z,50816.00
2017-10-19T10:51:46.566Z,52064.00
2017-10-19T10:52:46.027Z,49472.00
2017-10-19T10:53:46.440Z,48376.00
2017-10-19T10:54:46.270Z,49544.00
2017-10-19T10:55:46.789Z,49728.00
2017-10-19T10:56:46.116Z,47912.00
2017-10-19T10:57:46.651Z,46240.00
2017-10-19T10:58:46.155Z,44664.00
2017-10-19T10:59:46.516Z,45160.00
2017-10-19T11:00:46.019Z,45440.00
2017-10-19T11:01:46.660Z,43760.00
2017-10-19T11:02:46.225Z,43696.00
2017-10-19T11:03:46.682Z,46200.00
2017-10-19T11:04:46.278Z,50248.00
2017-10-19T11:05:46.381Z,51880.00
2017-10-19T11:06:47.144Z,45016.00
2017-10-19T11:07:46.773Z,46584.00
2017-10-19T11:08:46.179Z,44008.00
2017-10-19T11:09:46.477Z,44816.00
2017-10-19T11:10:46.567Z,43304.00
2017-10-19T11:11:46.002Z,42752.00
2017-10-19T11:12:47.068Z,45656.00
2017-10-19T11:13:46.809Z,39552.00
2017-10-19T11:14:46.273Z,41808.00
2017-10-19T11:15:46.303Z,45536.00
2017-10-19T11:16:46.943Z,44600.00
2017-10-19T11:17:46.559Z,46416.00
2017-10-19T11:18:45.721Z,46728.00
2017-10-19T11:19:45.879Z,44976.00
2017-10-19T11:20:46.299Z,47856.00
2017-10-19T11:21:46.873Z,49192.00
2017-10-19T11:22:46.327Z,51264.00
2017-10-19T11:23:46.734Z,49776.00
2017-10-19T11:24:46.242Z,48096.00
2017-10-19T11:25:46.329Z,49176.00
2017-10-19T11:26:46.659Z,50304.00
2017-10-19T11:27:46.429Z,50288.00
2017-10-19T11:28:45.947Z,47048.00
2017-10-19T11:29:46.454Z,39352.00
2017-10-19T11:30:46.927Z,42016.00
2017-10-19T11:31:46.007Z,46792.00
2017-10-19T11:32:46.523Z,47904.00
2017-10-19T11:33:45.582Z,48704.00
2017-10-19T11:34:46.009Z,48000.00
2017-10-19T11:35:45.937Z,47016.00
2017-10-19T11:36:46.173Z,37576.00
2017-10-19T11:37:46.978Z,36920.00
2017-10-19T11:38:46.259Z,36336.00
2017-10-19T11:39:45.568Z,36440.00
2017-10-19T11:40:45.805Z,36800.00
2017-10-19T11:41:45.991Z,39760.00
2017-10-19T11:42:46.703Z,47352.00
2017-10-19T11:43:46.297Z,48144.00
2017-10-19T11:44:46.900Z,47472.00
2017-10-19T11:45:46.504Z,44888.00
2017-10-19T11:46:46.056Z,40960.00
2017-10-19T11:47:47.023Z,42776.00
2017-10-19T11:48:46.740Z,43192.00
2017-10-19T11:49:46.177Z,44344.00
2017-10-19T11:50:46.171Z,45512.00
2017-10-19T11:51:46.220Z,42592.00
2017-10-19T11:52:46.822Z,39240.00
2017-10-19T11:53:46.381Z,39840.00
2017-10-19T11:54:45.956Z,36688.00
2017-10-19T11:55:46.373Z,31496.00
2017-10-19T11:56:45.507Z,33536.00
2017-10-19T11:57:45.671Z,32176.00
2017-10-19T11:58:45.916Z,32248.00
2017-10-19T11:59:47.336Z,34216.00
2017-10-19T12:00:46.530Z,34888.00
2017-10-19T12:01:46.119Z,35056.00
2017-10-19T12:02:46.180Z,35008.00
2017-10-19T12:03:46.687Z,34056.00
2017-10-19T12:04:45.785Z,32248.00
2017-10-19T12:05:46.177Z,33056.00
2017-10-19T12:06:47.028Z,33432.00
2017-10-19T12:07:46.596Z,32568.00
2017-10-19T12:08:45.970Z,33200.00
2017-10-19T12:09:46.754Z,33728.00
2017-10-19T12:10:46.094Z,30320.00
2017-10-19T12:11:46.087Z,30264.00
2017-10-19T12:12:45.881Z,29392.00
2017-10-19T12:13:46.537Z,29360.00
2017-10-19T12:14:46.379Z,29136.00
2017-10-19T12:15:45.697Z,30936.00
2017-10-19T12:16:46.309Z,30840.00
2017-10-19T12:17:47.088Z,29744.00
2017-10-19T12:18:47.683Z,30592.00
2017-10-19T12:19:45.864Z,31048.00
2017-10-19T12:20:46.300Z,31208.00
2017-10-19T12:21:45.932Z,30352.00
2017-10-19T12:22:46.723Z,30248.00
2017-10-19T12:23:46.333Z,29152.00
2017-10-19T12:24:45.900Z,30096.00
2017-10-19T12:25:46.469Z,29784.00
2017-10-19T12:26:46.236Z,29600.00
2017-10-19T12:27:46.899Z,29480.00
2017-10-19T12:28:46.529Z,31928.00
2017-10-19T12:29:46.255Z,33368.00